Time;durP1;ratioP1;P1;durP2;ratioP2;P2;SDS_P1;SDS_P2;PMS_P1;PMS_P2;Temp;Humidity;BMP_temperature;BMP_pressure;BME280_temperature;BME280_humidity;BME280_pressure;Samples;Min_cycle;Max_cycle;Signal;HPM_P1;HPM_P2
2023/08/01 00:00:35;;;;;;;5.00;3.30;;;;;;;20.58;55.89;99446.19;110464;1263;21986;-79
2023/08/01 00:03:34;;;;;;;6.00;3.70;;;;;;;20.57;55.90;99442.55;110376;1268;22009;-79
2023/08/01 00:06:07;;;;;;;5.40;2.70;;;;;;;20.56;55.88;99435.75;110197;1265;21970;-79
2023/08/01 00:08:43;;;;;;;6.60;3.60;;;;;;;20.56;55.97;99434.92;109518;1270;21971;-78
2023/08/01 00:11:20;;;;;;;6.40;2.60;;;;;;;20.56;55.99;99429.31;109125;1274;22762;-79
2023/08/01 00:13:59;;;;;;;8.70;3.10;;;;;;;20.54;56.00;99425.90;108738;1280;22448;-79
2023/08/01 00:16:51;;;;;;;4.50;3.30;;;;;;;20.53;56.13;99426.02;108599;1283;22197;-79
2023/08/01 00:19:31;;;;;;;6.70;3.50;;;;;;;20.52;56.15;99419.95;108536;1283;22072;-77
2023/08/01 00:22:13;;;;;;;5.10;3.00;;;;;;;20.52;56.34;99419.55;108467;1285;22181;-79
2023/08/01 00:24:47;;;;;;;5.10;3.50;;;;;;;20.53;56.39;99418.55;108553;1282;21992;-79
2023/08/01 00:27:22;;;;;;;7.50;3.40;;;;;;;20.52;56.18;99416.70;108578;1281;22772;-77
2023/08/01 00:29:58;;;;;;;9.40;3.80;;;;;;;20.51;56.17;99415.61;108923;1274;21962;-80
2023/08/01 00:32:42;;;;;;;4.00;3.20;;;;;;;20.50;56.41;99413.71;108945;1277;23042;-78
2023/08/01 00:35:37;;;;;;;5.80;2.90;;;;;;;20.47;56.25;99409.95;109374;1272;21981;-79
2023/08/01 00:38:28;;;;;;;5.50;3.00;;;;;;;20.45;56.42;99406.55;109441;1272;22725;-79
2023/08/01 00:41:34;;;;;;;4.40;3.00;;;;;;;20.45;56.45;99405.39;109404;1271;23055;-78
2023/08/01 00:44:12;;;;;;;6.10;3.80;;;;;;;20.42;56.55;99398.53;109490;1270;21976;-78
2023/08/01 00:46:57;;;;;;;8.30;3.30;;;;;;;20.39;56.56;99394.82;109950;1267;23010;-80
2023/08/01 00:49:55;;;;;;;6.90;3.50;;;;;;;20.35;56.70;99388.46;110463;1261;23027;-81
2023/08/01 00:52:41;;;;;;;5.00;3.20;;;;;;;20.24;56.69;99378.64;110713;1261;23052;-80
2023/08/01 00:55:29;;;;;;;6.60;3.50;;;;;;;20.20;56.81;99378.02;110439;1261;22976;-81
2023/08/01 00:58:12;;;;;;;5.40;2.90;;;;;;;20.13;57.05;99373.04;110676;1261;22034;-79
2023/08/01 01:01:01;;;;;;;5.50;3.40;;;;;;;20.05;57.29;99365.64;110694;1262;21960;-78
2023/08/01 01:03:56;;;;;;;4.80;3.50;;;;;;;19.98;57.40;99362.16;110564;1262;21960;-78
2023/08/01 01:07:03;;;;;;;6.00;3.50;;;;;;;19.92;57.71;99359.92;110382;1264;23593;-78
2023/08/01 01:09:50;;;;;;;4.70;3.10;;;;;;;19.85;58.04;99351.77;110327;1264;21966;-78
2023/08/01 01:12:45;;;;;;;7.20;3.10;;;;;;;19.79;58.14;99346.48;110340;1264;21972;-80
2023/08/01 01:15:50;;;;;;;6.40;3.50;;;;;;;19.78;58.32;99345.31;110285;1264;22000;-80
2023/08/01 01:18:34;;;;;;;7.20;3.40;;;;;;;19.76;58.35;99340.11;110219;1265;22386;-78
2023/08/01 01:21:24;;;;;;;8.60;3.90;;;;;;;19.73;58.45;99335.22;110233;1265;21968;-77
2023/08/01 01:24:09;;;;;;;7.50;3.20;;;;;;;19.72;58.61;99329.33;110405;1262;23821;-80
2023/08/01 01:26:55;;;;;;;4.50;2.90;;;;;;;19.67;58.64;99321.99;110453;1263;21991;-77
2023/08/01 01:29:47;;;;;;;4.30;3.10;;;;;;;19.63;58.66;99314.52;110226;1263;24309;-79
2023/08/01 01:32:25;;;;;;;3.70;3.20;;;;;;;19.60;58.73;99309.55;109816;1268;23618;-79
2023/08/01 01:35:07;;;;;;;6.10;2.70;;;;;;;19.56;58.81;99307.27;110160;1262;23091;-77
2023/08/01 01:37:58;;;;;;;6.70;3.20;;;;;;;19.54;58.77;99303.93;109971;1259;21974;-78
2023/08/01 01:40:43;;;;;;;4.50;3.00;;;;;;;19.54;58.87;99298.61;109171;1274;22055;-78
2023/08/01 01:43:24;;;;;;;4.40;3.40;;;;;;;19.53;59.03;99290.11;109076;1274;22052;-78
2023/08/01 01:46:20;;;;;;;8.60;3.20;;;;;;;19.57;58.92;99282.64;108709;1276;22864;-79
2023/08/01 01:48:57;;;;;;;7.10;3.10;;;;;;;19.57;58.99;99273.88;108638;1281;22032;-78
2023/08/01 01:51:36;;;;;;;6.10;3.20;;;;;;;19.57;58.77;99268.90;108842;1278;21985;-79
2023/08/01 01:54:28;;;;;;;4.90;3.00;;;;;;;19.55;58.78;99264.01;108908;1277;21971;-77
2023/08/01 01:57:09;;;;;;;4.90;3.30;;;;;;;19.50;58.80;99257.58;108885;1278;21981;-79
2023/08/01 01:59:43;;;;;;;9.00;3.40;;;;;;;19.49;58.93;99253.02;109125;1273;22047;-79
2023/08/01 02:02:36;;;;;;;4.70;3.20;;;;;;;19.47;58.93;99251.06;109374;1273;21964;-79
2023/08/01 02:05:16;;;;;;;6.60;2.90;;;;;;;19.45;58.91;99242.69;109945;1268;23548;-77
2023/08/01 02:08:01;;;;;;;5.90;3.30;;;;;;;19.43;59.02;99239.84;109981;1263;21983;-77
2023/08/01 02:10:43;;;;;;;4.30;3.10;;;;;;;19.39;59.10;99230.86;110507;1263;21970;-78
2023/08/01 02:13:37;;;;;;;5.00;3.00;;;;;;;19.38;59.13;99229.19;110462;1263;21965;-79
2023/08/01 02:16:29;;;;;;;7.90;4.10;;;;;;;19.36;59.16;99227.77;110856;1257;22208;-78
2023/08/01 02:19:15;;;;;;;;;;;;;;;19.35;59.22;99222.26;110992;1257;23647;-79
2023/08/01 02:22:03;;;;;;;7.50;3.70;;;;;;;19.25;59.37;99220.33;110348;1263;23588;-79
2023/08/01 02:24:55;;;;;;;4.30;3.10;;;;;;;19.26;59.34;99216.67;110247;1263;24973;-78
2023/08/01 02:27:51;;;;;;;5.70;3.40;;;;;;;19.28;59.31;99214.09;109985;1268;23041;-80
2023/08/01 02:30:53;;;;;;;6.60;3.50;;;;;;;19.27;59.30;99211.86;109973;1268;22487;-76
2023/08/01 02:33:40;;;;;;;3.80;3.30;;;;;;;19.25;59.43;99205.17;109907;1268;23141;-78
2023/08/01 02:36:29;;;;;;;5.50;3.10;;;;;;;19.26;59.38;99202.45;109879;1268;22016;-78
2023/08/01 02:39:28;;;;;;;3.90;3.00;;;;;;;19.27;59.33;99198.06;110144;1263;21967;-79
2023/08/01 02:42:24;;;;;;;7.30;3.20;;;;;;;19.28;59.37;99192.91;109971;1267;21836;-77
2023/08/01 02:45:07;;;;;;;6.50;3.30;;;;;;;19.31;59.23;99188.59;110005;1264;21989;-78
2023/08/01 02:47:49;;;;;;;4.50;3.30;;;;;;;19.32;59.22;99184.94;109702;1269;21984;-77
2023/08/01 02:50:33;;;;;;;5.90;3.90;;;;;;;19.32;59.17;99184.61;109736;1269;21983;-79
2023/08/01 02:53:07;;;;;;;7.80;3.90;;;;;;;19.32;59.18;99180.05;109888;1268;21990;-77
2023/08/01 02:55:43;;;;;;;7.20;3.50;;;;;;;19.33;59.14;99176.76;109349;1268;21983;-79
2023/08/01 02:58:35;;;;;;;7.50;3.00;;;;;;;19.31;59.17;99180.09;109504;1272;23372;-76
2023/08/01 03:01:23;;;;;;;5.20;3.20;;;;;;;19.30;59.34;99177.54;109523;1271;21969;-78
2023/08/01 03:04:06;;;;;;;8.90;3.50;;;;;;;19.32;59.18;99175.77;109739;1269;21991;-80
2023/08/01 03:06:53;;;;;;;6.60;3.60;;;;;;;19.32;59.11;99165.19;109495;1270;21972;-76
2023/08/01 03:09:42;;;;;;;11.00;4.10;;;;;;;19.31;59.11;99159.47;109501;1271;22994;-78
2023/08/01 03:12:31;;;;;;;;;;;;;;;;;;;;;
2023/08/01 03:15:20;;;;;;;6.90;3.60;;;;;;;19.25;59.02;99145.59;109014;1274;23065;-80
2023/08/01 03:18:16;;;;;;;5.00;3.30;;;;;;;19.21;59.25;99140.95;109070;1275;21998;-78
2023/08/01 03:20:56;;;;;;;;;;;;;;;19.21;59.12;99144.11;109495;1267;23012;-78
2023/08/01 03:23:29;;;;;;;8.00;3.40;;;;;;;19.10;59.46;99138.85;109383;1274;21977;-79
2023/08/01 03:26:09;;;;;;;9.00;4.20;;;;;;;19.10;59.57;99135.81;109537;1269;23856;-79
2023/08/01 03:28:50;;;;;;;7.60;3.50;;;;;;;19.08;59.51;99134.78;109777;1269;23583;-78
2023/08/01 03:31:26;;;;;;;12.10;6.90;;;;;;;19.08;59.62;99133.23;109907;1269;21988;-78
2023/08/01 03:34:12;;;;;;;7.90;4.40;;;;;;;19.07;59.78;99133.29;109454;1269;21991;-78
2023/08/01 03:36:58;;;;;;;10.50;4.40;;;;;;;19.08;59.73;99131.94;109497;1269;23810;-78
2023/08/01 03:39:45;;;;;;;6.10;3.60;;;;;;;19.08;59.74;99130.02;109294;1273;21980;-78
2023/08/01 03:42:55;;;;;;;5.10;3.80;;;;;;;19.05;59.85;99129.02;109628;1268;22250;-79
2023/08/01 03:45:42;;;;;;;10.20;4.30;;;;;;;19.07;59.88;99123.02;109958;1268;23794;-79
2023/08/01 03:48:27;;;;;;;6.20;3.60;;;;;;;19.08;59.81;99116.64;109917;1268;21961;-79
2023/08/01 03:51:24;;;;;;;5.40;3.40;;;;;;;19.09;59.80;99119.55;109862;1264;22254;-79
2023/08/01 03:54:17;;;;;;;4.70;3.70;;;;;;;19.10;59.80;99113.42;110429;1263;22366;-79
2023/08/01 03:57:02;;;;;;;6.90;3.90;;;;;;;19.10;59.72;99111.30;110386;1258;21967;-78
2023/08/01 03:59:39;;;;;;;9.10;4.70;;;;;;;19.11;59.77;99111.39;110954;1258;21977;-79
2023/08/01 04:02:16;;;;;;;6.20;3.80;;;;;;;19.11;59.72;99112.79;110541;1265;21962;-78
2023/08/01 04:04:53;;;;;;;6.40;3.40;;;;;;;19.11;59.62;99114.58;109783;1267;23732;-78
2023/08/01 04:07:37;;;;;;;7.30;3.90;;;;;;;19.10;59.54;99115.20;109530;1270;21980;-77
2023/08/01 04:10:23;;;;;;;8.90;3.90;;;;;;;19.10;59.71;99115.52;109482;1269;22437;-80
2023/08/01 04:13:08;;;;;;;9.30;4.40;;;;;;;19.12;59.71;99115.02;109518;1271;22430;-78
2023/08/01 04:15:48;;;;;;;12.70;4.10;;;;;;;19.13;59.65;99111.92;109716;1270;21979;-79
2023/08/01 04:18:25;;;;;;;10.70;3.70;;;;;;;19.14;59.55;99103.89;109638;1271;22016;-80
2023/08/01 04:21:35;;;;;;;6.40;4.30;;;;;;;19.14;59.57;99103.17;110080;1267;22964;-80
2023/08/01 04:24:20;;;;;;;13.10;4.00;;;;;;;19.16;59.43;99104.95;109737;1268;22742;-81
2023/08/01 04:27:27;;;;;;;5.90;3.70;;;;;;;19.20;59.25;99102.86;110398;1263;21967;-79
2023/08/01 04:30:31;;;;;;;6.60;3.20;;;;;;;19.18;59.29;99105.09;110174;1267;22055;-77
2023/08/01 04:33:28;;;;;;;7.30;4.00;;;;;;;19.20;59.20;99105.50;110197;1266;21976;-79
2023/08/01 04:36:08;;;;;;;;;;;;;;;19.21;59.24;99101.79;109835;1266;21988;-79
2023/08/01 04:38:57;;;;;;;10.00;4.10;;;;;;;19.17;59.44;99100.46;110161;1266;21978;-78
2023/08/01 04:41:45;;;;;;;7.00;3.80;;;;;;;19.21;59.25;99105.76;110348;1261;21971;-77
2023/08/01 04:44:58;;;;;;;7.40;4.70;;;;;;;19.22;59.11;99106.50;110616;1260;23157;-79
2023/08/01 04:47:38;;;;;;;12.80;4.90;;;;;;;19.23;59.09;99101.14;110451;1257;297113;-80
2023/08/01 04:50:32;;;;;;;8.50;5.00;;;;;;;19.28;59.15;99100.08;110775;1253;23031;-78
2023/08/01 04:53:22;;;;;;;11.50;4.80;;;;;;;19.34;59.00;99099.35;110883;1257;22350;-80
2023/08/01 04:56:26;;;;;;;8.80;5.20;;;;;;;19.36;58.82;99094.81;110965;1257;23573;-79
2023/08/01 04:59:05;;;;;;;10.80;6.40;;;;;;;19.38;58.80;99092.10;111268;1256;21960;-77
2023/08/01 05:01:49;;;;;;;;;;;;;;;19.41;58.72;99092.02;110751;1264;22007;-80
2023/08/01 05:04:24;;;;;;;9.20;5.70;;;;;;;19.36;58.81;99094.79;110392;1260;22046;-78
2023/08/01 05:07:05;;;;;;;8.90;5.70;;;;;;;19.38;58.69;99098.48;110505;1264;22988;-77
2023/08/01 05:09:52;;;;;;;11.00;5.50;;;;;;;19.42;58.65;99095.95;110348;1264;21972;-78
2023/08/01 05:12:25;;;;;;;7.70;4.80;;;;;;;19.45;58.58;99094.30;110381;1263;23686;-80
2023/08/01 05:15:48;;;;;;;;;;;;;;;;;;;;;
2023/08/01 05:18:28;;;;;;;;;;;;;;;19.46;58.50;99101.20;110541;1263;21974;-78
2023/08/01 05:21:22;;;;;;;9.40;4.40;;;;;;;19.40;58.65;99099.66;110856;1257;21996;-79
2023/08/01 05:24:18;;;;;;;8.30;4.00;;;;;;;19.44;58.70;99102.83;110964;1257;22971;-78
2023/08/01 05:27:13;;;;;;;7.80;4.80;;;;;;;19.52;58.70;99105.48;110808;1257;21962;-79
2023/08/01 05:30:18;;;;;;;6.70;3.60;;;;;;;19.59;58.68;99101.06;111109;1257;23020;-79
2023/08/01 05:33:55;;;;;;;;;;;;;;;;;;;;;
2023/08/01 05:36:59;;;;;;;8.10;3.50;;;;;;;19.63;58.54;99094.92;110802;1257;22010;-78
2023/08/01 05:40:11;;;;;;;6.50;3.60;;;;;;;19.66;58.74;99096.71;110729;1255;23717;-78
2023/08/01 05:43:14;;;;;;;8.70;3.90;;;;;;;19.67;58.75;99098.35;110135;1266;22730;-78
2023/08/01 05:46:35;;;;;;;11.30;4.10;;;;;;;19.71;59.09;99098.02;110547;1265;21968;-78
2023/08/01 05:50:03;;;;;;;6.30;4.00;;;;;;;19.69;59.01;99088.64;109765;1270;22388;-80
2023/08/01 05:52:56;;;;;;;7.90;3.90;;;;;;;19.77;59.16;99094.58;109226;1275;23621;-80
2023/08/01 05:56:39;;;;;;;7.60;3.60;;;;;;;19.73;59.20;99089.02;108750;1280;23616;-79
2023/08/01 05:59:45;;;;;;;6.20;3.40;;;;;;;19.72;59.37;99087.80;108930;1281;23056;-80
2023/08/01 06:02:50;;;;;;;7.90;4.00;;;;;;;19.75;59.71;99086.30;109005;1279;22041;-78
2023/08/01 06:05:56;;;;;;;5.80;3.70;;;;;;;19.76;59.57;99085.86;108721;1279;21986;-81
2023/08/01 06:09:29;;;;;;;7.90;3.70;;;;;;;19.76;59.76;99086.41;109108;1274;24302;-78
2023/08/01 06:12:26;;;;;;;11.30;4.60;;;;;;;19.78;60.02;99082.49;109540;1271;23793;-79
2023/08/01 06:15:37;;;;;;;7.40;3.70;;;;;;;19.80;59.96;99084.81;110523;1265;22026;-78
2023/08/01 06:18:45;;;;;;;9.80;4.70;;;;;;;19.81;59.97;99076.96;110213;1265;22171;-79
2023/08/01 06:21:53;;;;;;;8.40;4.70;;;;;;;19.84;60.21;99084.08;110428;1262;21964;-77
2023/08/01 06:25:05;;;;;;;;;;;;;;;;;;;;;
2023/08/01 06:28:18;;;;;;;7.20;5.70;;;;;;;19.88;60.61;99077.85;110861;1262;21986;-81
2023/08/01 06:31:48;;;;;;;6.30;5.60;;;;;;;19.93;60.76;99071.96;110767;1262;23035;-79
2023/08/01 06:34:41;;;;;;;11.20;5.60;;;;;;;19.98;61.00;99068.80;109903;1268;21974;-78
2023/08/01 06:37:42;;;;;;;8.00;5.40;;;;;;;19.95;60.91;99065.89;109401;1273;23795;-78
2023/08/01 06:40:57;;;;;;;8.40;5.40;;;;;;;19.97;61.24;99067.09;109128;1274;22465;-77
2023/08/01 06:44:04;;;;;;;9.20;5.40;;;;;;;20.00;61.41;99065.20;109006;1278;22307;-79
2023/08/01 06:46:48;;;;;;;13.30;7.10;;;;;;;20.09;61.59;99067.04;108960;1278;21985;-80
2023/08/01 06:50:02;;;;;;;13.60;6.60;;;;;;;20.15;61.56;99064.45;108668;1281;21997;-81
2023/08/01 06:53:00;;;;;;;7.90;5.40;;;;;;;20.18;61.66;99057.92;108846;1277;21993;-78
2023/08/01 06:55:50;;;;;;;7.80;4.50;;;;;;;20.16;61.63;99056.74;109187;1272;22434;-79
2023/08/01 06:58:25;;;;;;;7.20;4.60;;;;;;;20.14;61.77;99054.11;109794;1268;21998;-78
2023/08/01 07:01:26;;;;;;;6.30;4.40;;;;;;;20.13;61.91;99054.77;109677;1266;22893;-80
2023/08/01 07:04:30;;;;;;;6.50;4.20;;;;;;;20.12;62.08;99054.82;109585;1271;23626;-81
2023/08/01 07:07:08;;;;;;;7.50;4.30;;;;;;;20.14;62.18;99053.81;109887;1270;21974;-78
2023/08/01 07:09:57;;;;;;;13.90;8.70;;;;;;;20.15;62.14;99054.16;109675;1271;22000;-80
2023/08/01 07:12:44;;;;;;;33.00;29.60;;;;;;;20.10;62.35;99053.08;109699;1271;22011;-78
2023/08/01 07:15:23;;;;;;;9.20;7.40;;;;;;;20.11;62.68;99050.04;110223;1267;22035;-80
2023/08/01 07:18:13;;;;;;;6.70;5.10;;;;;;;20.14;62.77;99043.74;109883;1270;21975;-80
2023/08/01 07:21:24;;;;;;;10.60;6.30;;;;;;;20.13;62.85;99036.79;109414;1273;21966;-79
2023/08/01 07:24:14;;;;;;;11.00;5.10;;;;;;;20.16;62.97;99047.27;109322;1274;23738;-79
2023/08/01 07:27:13;;;;;;;6.30;3.90;;;;;;;20.12;63.02;99046.08;109466;1274;24314;-80
2023/08/01 07:30:14;;;;;;;6.80;3.90;;;;;;;20.10;63.15;99044.96;109262;1274;21996;-81
2023/08/01 07:33:10;;;;;;;4.80;3.80;;;;;;;20.06;63.25;99037.24;109382;1273;22024;-81
2023/08/01 07:35:57;;;;;;;8.00;4.50;;;;;;;20.05;63.65;99036.08;109206;1274;22077;-80
2023/08/01 07:39:08;;;;;;;8.50;5.10;;;;;;;20.02;63.87;99035.32;109009;1277;22515;-80
2023/08/01 07:42:15;;;;;;;8.10;4.80;;;;;;;20.04;64.19;99033.74;109036;1277;21946;-79
2023/08/01 07:45:09;;;;;;;5.10;3.90;;;;;;;20.06;64.25;99033.89;109151;1277;21995;-79
2023/08/01 07:47:45;;;;;;;6.80;4.20;;;;;;;20.11;64.42;99037.14;109051;1277;23720;-79
2023/08/01 07:50:27;;;;;;;7.80;3.80;;;;;;;20.12;64.38;99038.03;109078;1277;22819;-80
2023/08/01 07:53:13;;;;;;;6.60;4.10;;;;;;;20.09;64.25;99034.13;109081;1273;22006;-78
2023/08/01 07:55:45;;;;;;;6.50;4.40;;;;;;;20.05;64.50;99035.71;109207;1268;24032;-79
2023/08/01 07:58:28;;;;;;;6.20;4.40;;;;;;;20.03;64.62;99030.52;109514;1271;21983;-78
2023/08/01 08:01:09;;;;;;;5.50;4.10;;;;;;;19.96;64.88;99028.88;110415;1267;21969;-78
2023/08/01 08:04:14;;;;;;;5.50;4.20;;;;;;;19.90;65.09;99026.62;109894;1271;21973;-83
2023/08/01 08:06:59;;;;;;;6.10;4.00;;;;;;;19.84;65.34;99023.15;109764;1272;24692;-78
2023/08/01 08:09:58;;;;;;;7.00;4.30;;;;;;;19.78;65.60;99019.84;109528;1272;22036;-78
2023/08/01 08:12:28;;;;;;;5.10;3.90;;;;;;;19.77;66.07;99015.02;109715;1264;23045;-77
2023/08/01 08:15:10;;;;;;;9.70;4.40;;;;;;;19.79;66.51;99013.44;109482;1271;21984;-80
2023/08/01 08:17:48;;;;;;;6.30;3.50;;;;;;;19.87;66.51;99011.55;110310;1265;23847;-79
2023/08/01 08:20:32;;;;;;;5.20;3.90;;;;;;;19.98;66.88;99007.17;110515;1265;21977;-78
2023/08/01 08:23:19;;;;;;;5.30;4.60;;;;;;;20.12;66.83;99003.27;110026;1267;23219;-77
2023/08/01 08:25:59;;;;;;;10.10;7.40;;;;;;;20.21;66.35;99003.30;110277;1266;22048;-78
2023/08/01 08:28:43;;;;;;;15.30;9.60;;;;;;;20.23;66.00;99000.77;110389;1264;22734;-78
2023/08/01 08:31:18;;;;;;;9.80;7.80;;;;;;;20.22;65.59;98997.89;110577;1264;22041;-80
2023/08/01 08:34:00;;;;;;;8.60;5.30;;;;;;;20.18;65.53;98994.47;110303;1264;22059;-78
2023/08/01 08:36:55;;;;;;;8.00;5.00;;;;;;;20.17;65.44;98993.83;110563;1264;23679;-79
2023/08/01 08:39:29;;;;;;;7.60;4.60;;;;;;;20.22;65.80;98993.67;110097;1264;21973;-78
2023/08/01 08:42:21;;;;;;;6.40;5.20;;;;;;;20.31;65.74;98994.41;110934;1257;21990;-79
2023/08/01 08:44:58;;;;;;;8.70;4.30;;;;;;;20.36;65.59;98989.84;110997;1257;21963;-77
2023/08/01 08:47:46;;;;;;;7.80;4.20;;;;;;;20.38;65.58;98985.39;111014;1257;21958;-78
2023/08/01 08:50:30;;;;;;;10.00;4.80;;;;;;;20.47;65.56;98984.83;110270;1263;22007;-77
2023/08/01 08:53:12;;;;;;;8.00;5.00;;;;;;;20.60;65.39;98985.13;110476;1263;23043;-78
2023/08/01 08:55:57;;;;;;;9.10;4.30;;;;;;;20.71;65.04;98982.84;110549;1263;22000;-77
2023/08/01 08:58:56;;;;;;;7.00;3.90;;;;;;;20.86;65.05;98973.55;110722;1263;21946;-78
2023/08/01 09:01:35;;;;;;;9.00;4.30;;;;;;;21.09;64.79;98969.14;110948;1263;23702;-79
2023/08/01 09:04:23;;;;;;;12.30;5.00;;;;;;;21.26;63.83;98961.52;110772;1263;22935;-78
2023/08/01 09:07:10;;;;;;;5.50;4.20;;;;;;;21.36;63.03;98961.91;110961;1264;21951;-80
2023/08/01 09:10:05;;;;;;;7.90;4.30;;;;;;;21.35;62.35;98953.91;110691;1264;21970;-79
2023/08/01 09:12:49;;;;;;;5.20;3.50;;;;;;;21.33;62.47;98948.27;110888;1264;22732;-79
2023/08/01 09:15:37;;;;;;;5.60;4.00;;;;;;;21.34;62.26;98943.02;110252;1263;22008;-78
2023/08/01 09:18:15;;;;;;;8.80;4.30;;;;;;;21.33;62.11;98941.77;110374;1263;23039;-79
2023/08/01 09:21:04;;;;;;;6.00;4.00;;;;;;;21.33;62.21;98942.02;110583;1263;22141;-80
2023/08/01 09:23:44;;;;;;;7.50;5.10;;;;;;;21.31;61.92;98936.41;110529;1263;23590;-78
2023/08/01 09:26:22;;;;;;;6.20;4.00;;;;;;;21.29;61.81;98933.02;110641;1260;21970;-79
2023/08/01 09:29:19;;;;;;;7.80;4.40;;;;;;;21.21;61.77;98935.57;110653;1262;22516;-80
2023/08/01 09:32:13;;;;;;;9.50;5.40;;;;;;;21.15;62.06;98933.35;110851;1263;22408;-78
2023/08/01 09:35:21;;;;;;;7.10;4.20;;;;;;;21.11;62.03;98930.22;110658;1263;21976;-78
2023/08/01 09:38:19;;;;;;;6.40;4.00;;;;;;;20.97;62.06;98922.60;110598;1262;22817;-79
2023/08/01 09:41:05;;;;;;;6.90;4.60;;;;;;;21.01;62.23;98931.93;110675;1263;22009;-81
2023/08/01 09:43:54;;;;;;;6.00;3.90;;;;;;;21.03;62.27;98925.17;110675;1262;21852;-80
2023/08/01 09:46:38;;;;;;;6.70;4.90;;;;;;;21.03;62.24;98920.04;110779;1263;23694;-80
2023/08/01 09:49:33;;;;;;;5.50;4.30;;;;;;;21.05;62.33;98917.59;110629;1263;22068;-80
2023/08/01 09:52:12;;;;;;;6.80;3.80;;;;;;;21.03;62.12;98911.55;109554;1269;23113;-79
2023/08/01 09:54:54;;;;;;;6.70;5.00;;;;;;;21.00;62.09;98905.34;110246;1265;21965;-78
2023/08/01 09:57:39;;;;;;;10.10;5.80;;;;;;;21.02;61.95;98900.70;110188;1265;23714;-77
2023/08/01 10:00:29;;;;;;;7.70;4.90;;;;;;;21.03;62.23;98894.38;110099;1265;23567;-79
2023/08/01 10:03:13;;;;;;;6.40;4.70;;;;;;;21.19;62.64;98883.19;110577;1264;21972;-78
2023/08/01 10:06:07;;;;;;;5.40;4.00;;;;;;;21.54;62.36;98882.02;110807;1260;22056;-79
2023/08/01 10:09:27;;;;;;;4.90;3.90;;;;;;;21.83;60.71;98880.35;110205;1258;22049;-79
2023/08/01 10:12:22;;;;;;;7.70;4.60;;;;;;;21.96;59.74;98869.84;111036;1258;21963;-77
2023/08/01 10:15:26;;;;;;;6.80;4.70;;;;;;;22.06;59.75;98867.88;110232;1265;22917;-78
2023/08/01 10:18:29;;;;;;;10.50;4.70;;;;;;;22.20;59.09;98865.10;110385;1264;22041;-78
2023/08/01 10:21:25;;;;;;;8.50;4.40;;;;;;;22.30;58.49;98859.30;110535;1264;21991;-79
2023/08/01 10:24:44;;;;;;;4.90;3.60;;;;;;;22.35;57.89;98859.55;110456;1264;21952;-79
2023/08/01 10:27:27;;;;;;;11.20;4.20;;;;;;;22.41;57.94;98858.58;109801;1270;21997;-79
2023/08/01 10:30:09;;;;;;;10.60;4.10;;;;;;;22.55;57.59;98855.84;109341;1275;23812;-78
2023/08/01 10:33:12;;;;;;;11.50;3.70;;;;;;;22.63;57.19;98850.36;109151;1278;21983;-78
2023/08/01 10:36:23;;;;;;;5.50;4.60;;;;;;;22.66;56.73;98847.48;109306;1278;22003;-79
2023/08/01 10:39:32;;;;;;;6.20;4.40;;;;;;;22.65;56.03;98844.21;109094;1274;22002;-79
2023/08/01 10:42:15;;;;;;;6.60;3.30;;;;;;;22.69;56.01;98841.09;109232;1274;23743;-78
2023/08/01 10:44:55;;;;;;;10.40;4.20;;;;;;;22.76;55.51;98839.13;108767;1276;21992;-78
2023/08/01 10:47:30;;;;;;;9.80;3.90;;;;;;;22.85;55.49;98836.33;109560;1270;21980;-79
2023/08/01 10:50:25;;;;;;;5.10;3.70;;;;;;;23.01;55.54;98830.64;109794;1264;21976;-79
2023/08/01 10:53:16;;;;;;;6.40;3.50;;;;;;;23.13;54.61;98823.92;109748;1269;21960;-79
2023/08/01 10:55:57;;;;;;;4.40;3.30;;;;;;;23.20;54.16;98820.50;109901;1269;22001;-79
2023/08/01 10:58:50;;;;;;;4.80;4.00;;;;;;;23.37;53.87;98822.11;109779;1269;24346;-78
2023/08/01 11:01:53;;;;;;;9.40;4.10;;;;;;;23.49;53.25;98818.00;109265;1261;22010;-80
2023/08/01 11:04:39;;;;;;;7.30;3.60;;;;;;;23.63;52.73;98808.23;110060;1268;21993;-80
2023/08/01 11:07:22;;;;;;;7.60;4.00;;;;;;;23.73;52.33;98800.11;110085;1268;21972;-79
2023/08/01 11:10:13;;;;;;;5.50;3.80;;;;;;;23.78;52.14;98796.48;110310;1263;22122;-78
2023/08/01 11:12:53;;;;;;;13.60;4.00;;;;;;;23.78;52.11;98796.48;109885;1268;21975;-80
2023/08/01 11:15:27;;;;;;;6.40;3.50;;;;;;;23.81;52.12;98801.00;110034;1268;22007;-78
2023/08/01 11:18:13;;;;;;;6.30;3.50;;;;;;;23.83;52.04;98794.35;109876;1268;21998;-77
2023/08/01 11:21:03;;;;;;;7.50;3.50;;;;;;;23.83;51.84;98795.21;110541;1263;21928;-83
2023/08/01 11:23:42;;;;;;;8.50;3.40;;;;;;;23.78;51.82;98796.19;111033;1263;21977;-82
2023/08/01 11:26:23;;;;;;;6.10;3.00;;;;;;;23.73;51.60;98795.69;111081;1263;21965;-82
2023/08/01 11:29:07;;;;;;;5.40;3.10;;;;;;;23.66;51.68;98796.98;110979;1263;22038;-80
2023/08/01 11:32:01;;;;;;;3.70;2.40;;;;;;;23.67;52.10;98795.10;111329;1258;23711;-82
2023/08/01 11:34:43;;;;;;;7.70;3.60;;;;;;;23.65;51.90;98794.83;111073;1263;22024;-82
2023/08/01 11:37:28;;;;;;;7.70;6.90;;;;;;;23.63;51.80;98789.75;110262;1269;23704;-81
2023/08/01 11:40:03;;;;;;;6.40;4.60;;;;;;;23.60;51.97;98796.20;110248;1269;23627;-81
2023/08/01 11:42:53;;;;;;;;;;;;;;;;;;;;;
2023/08/01 11:45:28;;;;;;;5.90;3.80;;;;;;;23.58;52.02;98794.06;110763;1267;23675;-80
2023/08/01 11:48:07;;;;;;;10.20;3.80;;;;;;;23.52;52.12;98798.17;110552;1267;21986;-81
2023/08/01 11:50:49;;;;;;;4.00;2.50;;;;;;;23.44;52.31;98792.91;110140;1267;22529;-81
2023/08/01 11:53:24;;;;;;;4.00;3.20;;;;;;;23.35;52.46;98796.34;110790;1262;23055;-81
2023/08/01 11:56:36;;;;;;;3.50;2.60;;;;;;;23.32;52.80;98796.35;110873;1263;23033;-83
2023/08/01 11:59:22;;;;;;;4.30;2.70;;;;;;;23.33;53.07;98795.09;109558;1275;22056;-83
2023/08/01 12:02:06;;;;;;;9.50;8.00;;;;;;;23.28;52.97;98795.02;109355;1276;21992;-84
2023/08/01 12:05:05;;;;;;;5.10;3.80;;;;;;;23.20;53.14;98791.88;109543;1276;22139;-85
2023/08/01 12:08:55;;;;;;;4.10;3.40;;;;;;;23.18;53.55;98785.38;109557;1276;23830;-83
2023/08/01 12:11:44;;;;;;;7.00;3.30;;;;;;;23.13;53.41;98780.23;109593;1275;22047;-83
2023/08/01 12:14:57;;;;;;;4.20;3.00;;;;;;;23.06;53.34;98783.05;109720;1271;21953;-83
2023/08/01 12:17:54;;;;;;;6.90;3.90;;;;;;;22.90;53.53;98775.45;109779;1271;21978;-81
2023/08/01 12:20:53;;;;;;;5.40;2.90;;;;;;;22.85;53.81;98772.66;110146;1270;21992;-82
2023/08/01 12:24:15;;;;;;;5.70;3.20;;;;;;;22.80;53.56;98779.23;109924;1270;23441;-83
2023/08/01 12:27:15;;;;;;;5.40;3.50;;;;;;;22.70;53.65;98785.87;110026;1264;21971;-82
2023/08/01 12:30:04;;;;;;;6.90;3.70;;;;;;;22.68;53.97;98783.16;110006;1270;21981;-81
2023/08/01 12:33:03;;;;;;;5.60;3.30;;;;;;;22.71;54.36;98789.36;110059;1270;23037;-82
2023/08/01 12:35:48;;;;;;;6.60;3.40;;;;;;;22.77;54.31;98785.96;109818;1271;21974;-81
2023/08/01 12:38:21;;;;;;;5.10;3.90;;;;;;;22.75;54.08;98789.93;109802;1271;22004;-80
2023/08/01 12:41:19;;;;;;;4.70;3.70;;;;;;;22.66;54.45;98784.53;110111;1271;22000;-83
2023/08/01 12:43:55;;;;;;;5.70;3.80;;;;;;;22.59;54.75;98777.55;109949;1271;23704;-81
2023/08/01 12:46:39;;;;;;;7.50;4.10;;;;;;;22.50;55.07;98778.16;109769;1271;21990;-82
2023/08/01 12:49:21;;;;;;;10.20;4.30;;;;;;;22.38;55.45;98766.11;109858;1271;22038;-81
2023/08/01 12:51:58;;;;;;;5.80;3.10;;;;;;;22.29;55.78;98765.51;109914;1271;21978;-81
2023/08/01 12:54:39;;;;;;;5.30;3.60;;;;;;;22.23;56.23;98767.14;110560;1258;24366;-82
2023/08/01 12:57:29;;;;;;;5.60;3.80;;;;;;;22.03;57.03;98767.26;111277;1258;21979;-81
2023/08/01 13:00:10;;;;;;;5.30;3.20;;;;;;;21.91;57.59;98773.23;111094;1258;21935;-83
2023/08/01 13:02:48;;;;;;;4.30;2.70;;;;;;;21.93;57.92;98775.85;110852;1264;21992;-82
2023/08/01 13:05:56;;;;;;;;;;;;;;;;;;;;;
2023/08/01 13:09:04;;;;;;;3.90;3.40;;;;;;;21.87;58.27;98763.38;110996;1263;21962;-82
2023/08/01 13:12:13;;;;;;;4.70;3.20;;;;;;;21.90;58.52;98759.35;111130;1263;21971;-83
2023/08/01 13:14:57;;;;;;;4.10;3.20;;;;;;;21.88;58.61;98761.85;110213;1268;21976;-81
2023/08/01 13:17:55;;;;;;;6.00;3.00;;;;;;;21.91;58.68;98762.41;110379;1268;21972;-82
2023/08/01 13:21:03;;;;;;;6.40;3.00;;;;;;;22.00;58.78;98759.59;109808;1270;21986;-81
2023/08/01 13:24:09;;;;;;;4.90;3.10;;;;;;;22.04;58.47;98755.33;110018;1270;23036;-81